CEB228 RPVP-RPLL
Flight info
| Callsign | CEB228 |
|---|---|
| Flight time | 1h 11m |
| Altitude | 37000 |
| Route | DABOY1E DABOY W281 LEGED N884 LUBAN LUBAN3R |
| Aircraft | A321/L-V/N |
Departure
| Time | 2026-04-24 04:51 |
|---|---|
| Airport | Puerto Princesa International Airport / PAF Antonio Bautista Air Base (RPVP) |
Arrival
| Time | 2026-04-24 06:03 |
|---|---|
| Airport | Ninoy Aquino International Airport (RPLL) |
| Time | Latitude | Longitude | Altitude | Speed | Heading |
|---|---|---|---|---|---|
| 2026-04-24 04:45 | 9.74452 | 118.75062 | 75 ft | 2 kts | 2° |
| 2026-04-24 04:46 | 9.74437 | 118.75061 | 75 ft | 1 kts | 2° |
| 2026-04-24 04:46 | 9.74427 | 118.75061 | 75 ft | 2 kts | 342° |
| 2026-04-24 04:46 | 9.74415 | 118.75069 | 75 ft | 2 kts | 302° |
| 2026-04-24 04:46 | 9.74411 | 118.75079 | 75 ft | 0 kts | 276° |
| 2026-04-24 04:47 | 9.74411 | 118.75086 | 75 ft | 1 kts | 272° |
| 2026-04-24 04:47 | 9.74411 | 118.75087 | 75 ft | 0 kts | 272° |
| 2026-04-24 04:48 | 9.74411 | 118.75082 | 75 ft | 2 kts | 272° |
| 2026-04-24 04:48 | 9.74413 | 118.75053 | 75 ft | 5 kts | 272° |
| 2026-04-24 04:49 | 9.74415 | 118.75002 | 75 ft | 8 kts | 272° |
| 2026-04-24 04:49 | 9.74418 | 118.74931 | 75 ft | 11 kts | 272° |
| 2026-04-24 04:49 | 9.74422 | 118.74843 | 75 ft | 13 kts | 272° |
| 2026-04-24 04:49 | 9.74420 | 118.74748 | 75 ft | 9 kts | 254° |
| 2026-04-24 04:50 | 9.74368 | 118.74707 | 75 ft | 10 kts | 186° |
| 2026-04-24 04:50 | 9.74292 | 118.74705 | 75 ft | 10 kts | 180° |
| 2026-04-24 04:50 | 9.74258 | 118.74738 | 75 ft | 8 kts | 95° |
| 2026-04-24 04:50 | 9.74257 | 118.74757 | 75 ft | 3 kts | 93° |
| 2026-04-24 04:51 | 9.74248 | 118.74944 | 75 ft | 61 kts | 92° |
| 2026-04-24 04:51 | 9.74219 | 118.75623 | 75 ft | 127 kts | 92° |
| 2026-04-24 04:51 | 9.74175 | 118.76633 | 419 ft | 146 kts | 91° |
| 2026-04-24 04:51 | 9.74124 | 118.77625 | 1091 ft | 142 kts | 92° |
| 2026-04-24 04:52 | 9.74289 | 118.78621 | 1524 ft | 156 kts | 57° |
| 2026-04-24 04:52 | 9.75253 | 118.79225 | 1925 ft | 175 kts | 17° |
| 2026-04-24 04:52 | 9.76488 | 118.79512 | 2213 ft | 186 kts | 17° |
| 2026-04-24 04:52 | 9.77797 | 118.79859 | 2440 ft | 203 kts | 18° |
| 2026-04-24 04:53 | 9.79199 | 118.80259 | 2718 ft | 218 kts | 18° |
| 2026-04-24 04:53 | 9.80714 | 118.80702 | 3142 ft | 228 kts | 18° |
| 2026-04-24 04:53 | 9.82249 | 118.81156 | 3747 ft | 231 kts | 19° |
| 2026-04-24 04:53 | 9.83790 | 118.81615 | 4397 ft | 232 kts | 19° |
| 2026-04-24 04:54 | 9.85356 | 118.82083 | 5058 ft | 235 kts | 19° |
| 2026-04-24 04:54 | 9.86920 | 118.82551 | 5728 ft | 237 kts | 19° |
| 2026-04-24 04:54 | 9.88514 | 118.83006 | 6409 ft | 239 kts | 14° |
| 2026-04-24 04:54 | 9.90175 | 118.83227 | 7082 ft | 244 kts | 4° |
| 2026-04-24 04:55 | 9.91879 | 118.83222 | 7727 ft | 248 kts | 0° |
| 2026-04-24 04:55 | 9.93619 | 118.83165 | 8391 ft | 252 kts | 359° |
| 2026-04-24 04:55 | 9.95383 | 118.83101 | 9036 ft | 255 kts | 359° |
| 2026-04-24 04:55 | 9.97149 | 118.83039 | 9660 ft | 259 kts | 359° |
| 2026-04-24 04:56 | 9.98969 | 118.82980 | 10305 ft | 261 kts | 359° |
| 2026-04-24 04:56 | 10.00801 | 118.82922 | 10949 ft | 263 kts | 359° |
| 2026-04-24 04:56 | 10.02622 | 118.82867 | 11587 ft | 265 kts | 359° |
| 2026-04-24 04:56 | 10.04464 | 118.82811 | 12204 ft | 267 kts | 359° |
| 2026-04-24 04:57 | 10.06329 | 118.82755 | 12805 ft | 269 kts | 359° |
| 2026-04-24 04:57 | 10.08205 | 118.82698 | 13390 ft | 271 kts | 359° |
| 2026-04-24 04:57 | 10.10090 | 118.82641 | 13960 ft | 273 kts | 359° |
| 2026-04-24 04:57 | 10.11961 | 118.82585 | 14513 ft | 274 kts | 359° |
| 2026-04-24 04:58 | 10.13875 | 118.82527 | 15063 ft | 276 kts | 359° |
| 2026-04-24 04:58 | 10.15809 | 118.82468 | 15596 ft | 277 kts | 359° |
| 2026-04-24 04:58 | 10.17747 | 118.82410 | 16105 ft | 279 kts | 359° |
| 2026-04-24 04:58 | 10.19677 | 118.82351 | 16596 ft | 280 kts | 359° |
| 2026-04-24 04:59 | 10.21648 | 118.82291 | 17084 ft | 282 kts | 359° |
| 2026-04-24 04:59 | 10.23611 | 118.82232 | 17558 ft | 284 kts | 359° |
| 2026-04-24 04:59 | 10.25602 | 118.82172 | 18036 ft | 287 kts | 359° |
| 2026-04-24 04:59 | 10.27613 | 118.82111 | 18503 ft | 289 kts | 359° |
| 2026-04-24 05:00 | 10.29633 | 118.82050 | 18954 ft | 291 kts | 359° |
| 2026-04-24 05:00 | 10.31675 | 118.81987 | 19404 ft | 293 kts | 360° |
| 2026-04-24 05:00 | 10.33725 | 118.81924 | 19838 ft | 296 kts | 360° |
| 2026-04-24 05:00 | 10.35802 | 118.81861 | 20272 ft | 299 kts | 0° |
| 2026-04-24 05:01 | 10.37880 | 118.81799 | 20699 ft | 302 kts | 0° |
| 2026-04-24 05:01 | 10.40002 | 118.81737 | 21124 ft | 304 kts | 1° |
| 2026-04-24 05:01 | 10.42109 | 118.81784 | 21540 ft | 306 kts | 5° |
| 2026-04-24 05:01 | 10.44254 | 118.81924 | 21958 ft | 309 kts | 6° |
| 2026-04-24 05:02 | 10.46407 | 118.82078 | 22372 ft | 311 kts | 6° |
| 2026-04-24 05:02 | 10.48584 | 118.82237 | 22782 ft | 314 kts | 6° |
| 2026-04-24 05:02 | 10.50796 | 118.82398 | 23189 ft | 317 kts | 6° |
| 2026-04-24 05:02 | 10.53014 | 118.82557 | 23588 ft | 320 kts | 5° |
| 2026-04-24 05:03 | 10.55234 | 118.82716 | 23980 ft | 323 kts | 5° |
| 2026-04-24 05:03 | 10.57480 | 118.82874 | 24369 ft | 325 kts | 5° |
| 2026-04-24 05:03 | 10.59766 | 118.83036 | 24755 ft | 328 kts | 5° |
| 2026-04-24 05:03 | 10.62050 | 118.83197 | 25134 ft | 331 kts | 4° |
| 2026-04-24 05:04 | 10.64348 | 118.83359 | 25504 ft | 334 kts | 4° |
| 2026-04-24 05:04 | 10.66678 | 118.83523 | 25872 ft | 337 kts | 4° |
| 2026-04-24 05:04 | 10.69053 | 118.83691 | 26237 ft | 339 kts | 4° |
| 2026-04-24 05:04 | 10.71427 | 118.83858 | 26595 ft | 342 kts | 3° |
| 2026-04-24 05:05 | 10.73812 | 118.84026 | 26951 ft | 345 kts | 3° |
| 2026-04-24 05:05 | 10.76197 | 118.84194 | 27298 ft | 347 kts | 3° |
| 2026-04-24 05:05 | 10.78623 | 118.84365 | 27638 ft | 350 kts | 3° |
| 2026-04-24 05:05 | 10.81082 | 118.84538 | 27983 ft | 353 kts | 2° |
| 2026-04-24 05:06 | 10.83551 | 118.84712 | 28317 ft | 356 kts | 2° |
| 2026-04-24 05:06 | 10.86049 | 118.84888 | 28659 ft | 358 kts | 2° |
| 2026-04-24 05:06 | 10.88521 | 118.85062 | 29010 ft | 361 kts | 2° |
| 2026-04-24 05:06 | 10.91029 | 118.85239 | 29367 ft | 363 kts | 2° |
| 2026-04-24 05:07 | 10.93582 | 118.85417 | 29724 ft | 365 kts | 2° |
| 2026-04-24 05:07 | 10.96125 | 118.85598 | 30071 ft | 368 kts | 2° |
| 2026-04-24 05:07 | 11.09506 | 118.86546 | 31784 ft | 371 kts | 3° |
| 2026-04-24 05:07 | 11.12075 | 118.87028 | 31921 ft | 380 kts | 16° |
| 2026-04-24 05:08 | 11.14588 | 118.88013 | 32171 ft | 386 kts | 22° |
| 2026-04-24 05:08 | 11.17041 | 118.89124 | 32471 ft | 389 kts | 23° |
| 2026-04-24 05:08 | 11.19537 | 118.90271 | 32777 ft | 391 kts | 22° |
| 2026-04-24 05:08 | 11.22044 | 118.91417 | 33106 ft | 394 kts | 22° |
| 2026-04-24 05:09 | 11.24546 | 118.92554 | 33432 ft | 397 kts | 22° |
| 2026-04-24 05:09 | 11.27078 | 118.93697 | 33743 ft | 399 kts | 22° |
| 2026-04-24 05:09 | 11.29613 | 118.94838 | 34045 ft | 401 kts | 22° |
| 2026-04-24 05:09 | 11.32200 | 118.96000 | 34372 ft | 403 kts | 22° |
| 2026-04-24 05:10 | 11.34751 | 118.97145 | 34681 ft | 405 kts | 22° |
| 2026-04-24 05:10 | 11.37371 | 118.98321 | 34994 ft | 407 kts | 22° |
| 2026-04-24 05:10 | 11.39946 | 118.99476 | 35287 ft | 408 kts | 22° |
| 2026-04-24 05:10 | 11.42547 | 119.00642 | 35563 ft | 410 kts | 22° |
| 2026-04-24 05:11 | 11.45196 | 119.01830 | 35831 ft | 411 kts | 22° |
| 2026-04-24 05:11 | 11.47816 | 119.03005 | 36077 ft | 413 kts | 22° |
| 2026-04-24 05:11 | 11.50440 | 119.04182 | 36305 ft | 415 kts | 22° |
| 2026-04-24 05:11 | 11.53078 | 119.05365 | 36527 ft | 416 kts | 22° |
| 2026-04-24 05:12 | 11.55770 | 119.06573 | 36746 ft | 418 kts | 22° |
| 2026-04-24 05:12 | 11.58446 | 119.07774 | 36890 ft | 421 kts | 22° |
| 2026-04-24 05:12 | 11.63867 | 119.10208 | 36895 ft | 433 kts | 22° |
| 2026-04-24 05:13 | 11.69478 | 119.12729 | 36894 ft | 444 kts | 22° |
| 2026-04-24 05:13 | 11.72307 | 119.14001 | 36895 ft | 448 kts | 22° |
| 2026-04-24 05:14 | 11.78054 | 119.16584 | 36893 ft | 450 kts | 22° |
| 2026-04-24 05:14 | 11.83791 | 119.19165 | 36896 ft | 449 kts | 22° |
| 2026-04-24 05:15 | 11.89494 | 119.21732 | 36900 ft | 449 kts | 22° |
| 2026-04-24 05:15 | 11.95236 | 119.24316 | 36906 ft | 448 kts | 22° |
| 2026-04-24 05:16 | 12.00949 | 119.26890 | 36907 ft | 449 kts | 22° |
| 2026-04-24 05:16 | 12.06643 | 119.29456 | 36907 ft | 449 kts | 22° |
| 2026-04-24 05:17 | 12.12404 | 119.32053 | 36907 ft | 449 kts | 22° |
| 2026-04-24 05:17 | 12.18095 | 119.34621 | 36907 ft | 449 kts | 22° |
| 2026-04-24 05:18 | 12.23853 | 119.37219 | 36908 ft | 448 kts | 22° |
| 2026-04-24 05:18 | 12.29556 | 119.39793 | 36907 ft | 448 kts | 22° |
| 2026-04-24 05:19 | 12.35253 | 119.42367 | 36908 ft | 449 kts | 22° |
| 2026-04-24 05:19 | 12.40978 | 119.44954 | 36909 ft | 448 kts | 22° |
| 2026-04-24 05:20 | 12.46707 | 119.47545 | 36905 ft | 448 kts | 22° |
| 2026-04-24 05:20 | 12.52417 | 119.50128 | 36904 ft | 448 kts | 22° |
| 2026-04-24 05:21 | 12.58098 | 119.52699 | 36905 ft | 447 kts | 22° |
| 2026-04-24 05:21 | 12.63812 | 119.55286 | 36904 ft | 448 kts | 22° |
| 2026-04-24 05:22 | 12.69520 | 119.57873 | 36902 ft | 448 kts | 22° |
| 2026-04-24 05:22 | 12.75217 | 119.60454 | 36837 ft | 449 kts | 22° |
| 2026-04-24 05:22 | 12.78078 | 119.61752 | 36540 ft | 447 kts | 22° |
| 2026-04-24 05:23 | 12.80909 | 119.63037 | 36253 ft | 445 kts | 22° |
| 2026-04-24 05:23 | 12.83740 | 119.64322 | 35965 ft | 442 kts | 22° |
| 2026-04-24 05:23 | 12.86541 | 119.65594 | 35678 ft | 440 kts | 22° |
| 2026-04-24 05:23 | 12.89339 | 119.66863 | 35393 ft | 440 kts | 22° |
| 2026-04-24 05:24 | 12.92173 | 119.68150 | 35105 ft | 440 kts | 22° |
| 2026-04-24 05:24 | 12.94961 | 119.69415 | 34821 ft | 441 kts | 22° |
| 2026-04-24 05:24 | 12.97782 | 119.70696 | 34536 ft | 442 kts | 22° |
| 2026-04-24 05:24 | 13.00576 | 119.71965 | 34255 ft | 443 kts | 22° |
| 2026-04-24 05:25 | 13.03413 | 119.73254 | 33970 ft | 444 kts | 22° |
| 2026-04-24 05:25 | 13.06235 | 119.74537 | 33689 ft | 445 kts | 22° |
| 2026-04-24 05:25 | 13.09073 | 119.75827 | 33407 ft | 446 kts | 22° |
| 2026-04-24 05:25 | 13.11912 | 119.77118 | 33126 ft | 446 kts | 22° |
| 2026-04-24 05:26 | 13.14752 | 119.78410 | 32846 ft | 448 kts | 22° |
| 2026-04-24 05:26 | 13.17620 | 119.79715 | 32580 ft | 449 kts | 22° |
| 2026-04-24 05:26 | 13.20494 | 119.81021 | 32322 ft | 449 kts | 22° |
| 2026-04-24 05:26 | 13.23317 | 119.82307 | 32069 ft | 447 kts | 22° |
| 2026-04-24 05:27 | 13.26162 | 119.83603 | 31813 ft | 446 kts | 22° |
| 2026-04-24 05:27 | 13.29032 | 119.84910 | 31555 ft | 444 kts | 22° |
| 2026-04-24 05:27 | 13.31821 | 119.86179 | 31302 ft | 442 kts | 22° |
| 2026-04-24 05:27 | 13.34636 | 119.87463 | 31043 ft | 440 kts | 22° |
| 2026-04-24 05:28 | 13.37439 | 119.88741 | 30768 ft | 439 kts | 22° |
| 2026-04-24 05:28 | 13.40236 | 119.90016 | 30478 ft | 436 kts | 22° |
| 2026-04-24 05:28 | 13.42987 | 119.91271 | 30143 ft | 435 kts | 22° |
| 2026-04-24 05:28 | 13.45758 | 119.92536 | 29716 ft | 432 kts | 22° |
| 2026-04-24 05:29 | 13.48506 | 119.93790 | 29259 ft | 429 kts | 22° |
| 2026-04-24 05:29 | 13.51209 | 119.95025 | 28781 ft | 425 kts | 22° |
| 2026-04-24 05:29 | 13.53895 | 119.96251 | 28313 ft | 422 kts | 22° |
| 2026-04-24 05:29 | 13.56586 | 119.97478 | 27860 ft | 417 kts | 22° |
| 2026-04-24 05:30 | 13.59230 | 119.98686 | 27419 ft | 413 kts | 22° |
| 2026-04-24 05:30 | 13.61846 | 119.99882 | 26973 ft | 409 kts | 22° |
| 2026-04-24 05:30 | 13.64434 | 120.01066 | 26530 ft | 406 kts | 22° |
| 2026-04-24 05:30 | 13.67015 | 120.02245 | 26089 ft | 402 kts | 22° |
| 2026-04-24 05:31 | 13.69528 | 120.03396 | 25657 ft | 399 kts | 22° |
| 2026-04-24 05:31 | 13.72081 | 120.04564 | 25213 ft | 395 kts | 22° |
| 2026-04-24 05:31 | 13.74590 | 120.05713 | 24769 ft | 392 kts | 22° |
| 2026-04-24 05:31 | 13.77049 | 120.06838 | 24332 ft | 389 kts | 23° |
| 2026-04-24 05:32 | 13.79532 | 120.07975 | 23891 ft | 386 kts | 23° |
| 2026-04-24 05:32 | 13.81962 | 120.09087 | 23613 ft | 377 kts | 23° |
| 2026-04-24 05:32 | 13.84314 | 120.10165 | 23504 ft | 364 kts | 23° |
| 2026-04-24 05:32 | 13.86613 | 120.11215 | 23266 ft | 357 kts | 22° |
| 2026-04-24 05:33 | 13.88883 | 120.12236 | 22843 ft | 355 kts | 22° |
| 2026-04-24 05:33 | 13.91135 | 120.13248 | 22437 ft | 353 kts | 22° |
| 2026-04-24 05:33 | 13.93371 | 120.14253 | 22044 ft | 351 kts | 22° |
| 2026-04-24 05:34 | 13.97835 | 120.16264 | 21267 ft | 346 kts | 22° |
| 2026-04-24 05:34 | 14.00043 | 120.17259 | 20856 ft | 344 kts | 23° |
| 2026-04-24 05:34 | 14.02216 | 120.18240 | 20457 ft | 342 kts | 22° |
| 2026-04-24 05:34 | 14.04400 | 120.19225 | 20072 ft | 340 kts | 23° |
| 2026-04-24 05:35 | 14.06576 | 120.20208 | 19685 ft | 339 kts | 22° |
| 2026-04-24 05:35 | 14.08721 | 120.21177 | 19288 ft | 338 kts | 22° |
| 2026-04-24 05:35 | 14.10897 | 120.22159 | 18861 ft | 336 kts | 22° |
| 2026-04-24 05:35 | 14.13020 | 120.23118 | 18461 ft | 334 kts | 22° |
| 2026-04-24 05:36 | 14.15133 | 120.24072 | 18093 ft | 332 kts | 22° |
| 2026-04-24 05:36 | 14.17241 | 120.25025 | 17718 ft | 330 kts | 22° |
| 2026-04-24 05:36 | 14.19369 | 120.25987 | 17307 ft | 329 kts | 22° |
| 2026-04-24 05:36 | 14.21461 | 120.26932 | 16947 ft | 327 kts | 22° |
| 2026-04-24 05:37 | 14.23517 | 120.27863 | 16570 ft | 326 kts | 22° |
| 2026-04-24 05:37 | 14.25602 | 120.28805 | 16171 ft | 325 kts | 22° |
| 2026-04-24 05:37 | 14.27682 | 120.29746 | 15768 ft | 324 kts | 22° |
| 2026-04-24 05:37 | 14.29746 | 120.30681 | 15378 ft | 323 kts | 22° |
| 2026-04-24 05:38 | 14.31805 | 120.31612 | 15001 ft | 323 kts | 22° |
| 2026-04-24 05:38 | 14.33855 | 120.32540 | 14589 ft | 323 kts | 23° |
| 2026-04-24 05:38 | 14.35920 | 120.33476 | 14191 ft | 322 kts | 22° |
| 2026-04-24 05:38 | 14.37952 | 120.34396 | 13819 ft | 321 kts | 22° |
| 2026-04-24 05:39 | 14.40022 | 120.35334 | 13404 ft | 320 kts | 22° |
| 2026-04-24 05:39 | 14.42057 | 120.36256 | 12991 ft | 319 kts | 23° |
| 2026-04-24 05:39 | 14.43947 | 120.37438 | 12596 ft | 318 kts | 41° |
| 2026-04-24 05:39 | 14.45353 | 120.39176 | 12218 ft | 316 kts | 58° |
| 2026-04-24 05:40 | 14.46440 | 120.41101 | 11879 ft | 313 kts | 60° |
| 2026-04-24 05:40 | 14.47500 | 120.43059 | 11507 ft | 311 kts | 61° |
| 2026-04-24 05:40 | 14.48553 | 120.45002 | 11133 ft | 308 kts | 60° |
| 2026-04-24 05:40 | 14.49599 | 120.46910 | 10780 ft | 305 kts | 60° |
| 2026-04-24 05:41 | 14.50643 | 120.48799 | 10434 ft | 301 kts | 60° |
| 2026-04-24 05:41 | 14.51678 | 120.50658 | 10085 ft | 298 kts | 60° |
| 2026-04-24 05:41 | 14.52709 | 120.52509 | 9715 ft | 295 kts | 60° |
| 2026-04-24 05:41 | 14.53725 | 120.54333 | 9354 ft | 292 kts | 60° |
| 2026-04-24 05:42 | 14.54725 | 120.56123 | 9004 ft | 289 kts | 60° |
| 2026-04-24 05:42 | 14.55734 | 120.57931 | 8646 ft | 287 kts | 60° |
| 2026-04-24 05:42 | 14.56713 | 120.59693 | 8256 ft | 285 kts | 60° |
| 2026-04-24 05:42 | 14.57703 | 120.61472 | 7871 ft | 282 kts | 60° |
| 2026-04-24 05:43 | 14.58678 | 120.63220 | 7505 ft | 280 kts | 60° |
| 2026-04-24 05:43 | 14.59648 | 120.64957 | 7147 ft | 277 kts | 60° |
| 2026-04-24 05:43 | 14.60436 | 120.66704 | 6942 ft | 268 kts | 78° |
| 2026-04-24 05:43 | 14.60289 | 120.68562 | 6802 ft | 257 kts | 111° |
| 2026-04-24 05:44 | 14.59239 | 120.70042 | 6496 ft | 256 kts | 141° |
| 2026-04-24 05:44 | 14.57704 | 120.70972 | 6191 ft | 255 kts | 151° |
| 2026-04-24 05:44 | 14.56135 | 120.71822 | 5894 ft | 254 kts | 150° |
| 2026-04-24 05:44 | 14.54576 | 120.72692 | 5570 ft | 253 kts | 149° |
| 2026-04-24 05:45 | 14.53056 | 120.73560 | 5410 ft | 244 kts | 149° |
| 2026-04-24 05:45 | 14.51609 | 120.74397 | 5340 ft | 234 kts | 149° |
| 2026-04-24 05:45 | 14.50188 | 120.75233 | 5113 ft | 234 kts | 148° |
| 2026-04-24 05:45 | 14.48787 | 120.76066 | 4806 ft | 234 kts | 148° |
| 2026-04-24 05:46 | 14.47368 | 120.76910 | 4513 ft | 232 kts | 148° |
| 2026-04-24 05:46 | 14.45983 | 120.77733 | 4234 ft | 231 kts | 149° |
| 2026-04-24 05:46 | 14.44573 | 120.78570 | 3945 ft | 230 kts | 149° |
| 2026-04-24 05:46 | 14.43201 | 120.79385 | 3658 ft | 229 kts | 149° |
| 2026-04-24 05:47 | 14.41813 | 120.80209 | 3365 ft | 228 kts | 149° |
| 2026-04-24 05:47 | 14.40607 | 120.81247 | 3016 ft | 229 kts | 121° |
| 2026-04-24 05:47 | 14.40317 | 120.82801 | 2884 ft | 219 kts | 79° |
| 2026-04-24 05:47 | 14.40871 | 120.84206 | 2900 ft | 212 kts | 62° |
| 2026-04-24 05:48 | 14.41647 | 120.85497 | 2964 ft | 201 kts | 59° |
| 2026-04-24 05:48 | 14.42378 | 120.86686 | 2790 ft | 192 kts | 60° |
| 2026-04-24 05:48 | 14.43053 | 120.87842 | 2557 ft | 186 kts | 62° |
| 2026-04-24 05:48 | 14.43684 | 120.88966 | 2333 ft | 176 kts | 63° |
| 2026-04-24 05:49 | 14.44269 | 120.90026 | 2104 ft | 163 kts | 63° |
| 2026-04-24 05:49 | 14.44805 | 120.91002 | 1899 ft | 153 kts | 64° |
| 2026-04-24 05:49 | 14.45332 | 120.91961 | 1747 ft | 151 kts | 64° |
| 2026-04-24 05:49 | 14.45843 | 120.92889 | 1559 ft | 147 kts | 65° |
| 2026-04-24 05:50 | 14.46349 | 120.93805 | 1378 ft | 145 kts | 64° |
| 2026-04-24 05:50 | 14.46838 | 120.94690 | 1210 ft | 144 kts | 64° |
| 2026-04-24 05:50 | 14.47316 | 120.95554 | 1044 ft | 144 kts | 63° |
| 2026-04-24 05:50 | 14.47817 | 120.96458 | 841 ft | 145 kts | 62° |
| 2026-04-24 05:51 | 14.48318 | 120.97362 | 670 ft | 143 kts | 63° |
| 2026-04-24 05:51 | 14.48809 | 120.98250 | 508 ft | 143 kts | 63° |
| 2026-04-24 05:51 | 14.49301 | 120.99129 | 345 ft | 141 kts | 62° |
| 2026-04-24 05:51 | 14.49786 | 121.00007 | 148 ft | 138 kts | 63° |
| 2026-04-24 05:52 | 14.50247 | 121.00848 | 83 ft | 136 kts | 63° |
| 2026-04-24 05:52 | 14.50757 | 121.01781 | 502 ft | 155 kts | 63° |
| 2026-04-24 05:52 | 14.51285 | 121.02750 | 1103 ft | 157 kts | 64° |
| 2026-04-24 05:52 | 14.51837 | 121.03768 | 1401 ft | 168 kts | 64° |
| 2026-04-24 05:53 | 14.52195 | 121.04925 | 1649 ft | 177 kts | 95° |
| 2026-04-24 05:53 | 14.51734 | 121.06104 | 1921 ft | 185 kts | 130° |
| 2026-04-24 05:53 | 14.50763 | 121.07079 | 2191 ft | 202 kts | 139° |
| 2026-04-24 05:53 | 14.49602 | 121.08043 | 2436 ft | 224 kts | 149° |
| 2026-04-24 05:54 | 14.48095 | 121.08428 | 3024 ft | 228 kts | 183° |
| 2026-04-24 05:54 | 14.46613 | 121.07925 | 3567 ft | 230 kts | 214° |
| 2026-04-24 05:54 | 14.45525 | 121.06690 | 3881 ft | 233 kts | 236° |
| 2026-04-24 05:54 | 14.44709 | 121.05254 | 3924 ft | 234 kts | 240° |
| 2026-04-24 05:55 | 14.43933 | 121.03763 | 3925 ft | 234 kts | 241° |
| 2026-04-24 05:55 | 14.43170 | 121.02268 | 3927 ft | 234 kts | 241° |
| 2026-04-24 05:55 | 14.42424 | 121.00798 | 3929 ft | 234 kts | 241° |
| 2026-04-24 05:55 | 14.41664 | 120.99298 | 3929 ft | 234 kts | 242° |
| 2026-04-24 05:56 | 14.40904 | 120.97800 | 3926 ft | 235 kts | 242° |
| 2026-04-24 05:56 | 14.40146 | 120.96308 | 3928 ft | 235 kts | 242° |
| 2026-04-24 05:56 | 14.39390 | 120.94818 | 3912 ft | 232 kts | 242° |
| 2026-04-24 05:56 | 14.36931 | 120.89966 | 2996 ft | 230 kts | 241° |
| 2026-04-24 05:57 | 14.36210 | 120.88513 | 2926 ft | 227 kts | 241° |
| 2026-04-24 05:57 | 14.35681 | 120.86983 | 2908 ft | 231 kts | 266° |
| 2026-04-24 05:57 | 14.36105 | 120.85437 | 2897 ft | 222 kts | 306° |
| 2026-04-24 05:57 | 14.37129 | 120.84279 | 2926 ft | 220 kts | 316° |
| 2026-04-24 05:58 | 14.38430 | 120.83470 | 2905 ft | 219 kts | 349° |
| 2026-04-24 05:58 | 14.39921 | 120.83548 | 2915 ft | 215 kts | 24° |
| 2026-04-24 05:58 | 14.41112 | 120.84463 | 2933 ft | 212 kts | 53° |
| 2026-04-24 05:58 | 14.41904 | 120.85680 | 2975 ft | 197 kts | 62° |
| 2026-04-24 05:59 | 14.42551 | 120.86891 | 2753 ft | 190 kts | 64° |
| 2026-04-24 05:59 | 14.43168 | 120.88069 | 2513 ft | 180 kts | 64° |
| 2026-04-24 05:59 | 14.43758 | 120.89159 | 2279 ft | 167 kts | 63° |
| 2026-04-24 05:59 | 14.44311 | 120.90160 | 2063 ft | 155 kts | 64° |
| 2026-04-24 06:00 | 14.44843 | 120.91118 | 1907 ft | 151 kts | 64° |
| 2026-04-24 06:00 | 14.45357 | 120.92039 | 1726 ft | 147 kts | 64° |
| 2026-04-24 06:00 | 14.45871 | 120.92960 | 1549 ft | 147 kts | 65° |
| 2026-04-24 06:00 | 14.46378 | 120.93873 | 1374 ft | 146 kts | 64° |
| 2026-04-24 06:01 | 14.46878 | 120.94775 | 1188 ft | 145 kts | 64° |
| 2026-04-24 06:01 | 14.47377 | 120.95673 | 1007 ft | 144 kts | 64° |
| 2026-04-24 06:01 | 14.47876 | 120.96571 | 813 ft | 143 kts | 63° |
| 2026-04-24 06:01 | 14.48364 | 120.97450 | 659 ft | 143 kts | 63° |
| 2026-04-24 06:02 | 14.48860 | 120.98327 | 461 ft | 140 kts | 64° |
| 2026-04-24 06:02 | 14.49335 | 120.99195 | 330 ft | 140 kts | 64° |
| 2026-04-24 06:02 | 14.49822 | 121.00074 | 151 ft | 136 kts | 63° |
| 2026-04-24 06:02 | 14.50246 | 121.00847 | 82 ft | 104 kts | 60° |
| 2026-04-24 06:03 | 14.50523 | 121.01342 | 82 ft | 62 kts | 59° |
| 2026-04-24 06:03 | 14.50705 | 121.01653 | 81 ft | 37 kts | 51° |
| 2026-04-24 06:03 | 14.50858 | 121.01779 | 81 ft | 11 kts | 23° |
| 2026-04-24 06:03 | 14.50928 | 121.01750 | 82 ft | 12 kts | 314° |
| 2026-04-24 06:04 | 14.50995 | 121.01679 | 82 ft | 14 kts | 314° |
| 2026-04-24 06:04 | 14.51073 | 121.01599 | 82 ft | 16 kts | 315° |
| 2026-04-24 06:04 | 14.51157 | 121.01511 | 82 ft | 17 kts | 314° |
| 2026-04-24 06:04 | 14.51229 | 121.01437 | 82 ft | 9 kts | 315° |
| 2026-04-24 06:05 | 14.51278 | 121.01433 | 82 ft | 8 kts | 32° |
| 2026-04-24 06:05 | 14.51327 | 121.01484 | 82 ft | 11 kts | 47° |
| 2026-04-24 06:05 | 14.51385 | 121.01550 | 82 ft | 13 kts | 45° |
| 2026-04-24 06:05 | 14.51443 | 121.01589 | 82 ft | 9 kts | 352° |
| 2026-04-24 06:06 | 14.51500 | 121.01543 | 82 ft | 11 kts | 314° |
| 2026-04-24 06:06 | 14.51564 | 121.01477 | 82 ft | 13 kts | 317° |
| 2026-04-24 06:06 | 14.51637 | 121.01402 | 82 ft | 15 kts | 314° |
| 2026-04-24 06:06 | 14.51716 | 121.01321 | 82 ft | 16 kts | 315° |
| 2026-04-24 06:07 | 14.51795 | 121.01238 | 82 ft | 16 kts | 315° |
| 2026-04-24 06:07 | 14.51874 | 121.01159 | 82 ft | 15 kts | 315° |
| 2026-04-24 06:07 | 14.51951 | 121.01078 | 82 ft | 15 kts | 315° |
| 2026-04-24 06:07 | 14.52027 | 121.01001 | 82 ft | 15 kts | 316° |
| 2026-04-24 06:08 | 14.52095 | 121.00929 | 82 ft | 9 kts | 314° |
| 2026-04-24 06:08 | 14.52132 | 121.00891 | 82 ft | 6 kts | 315° |
| 2026-04-24 06:08 | 14.52152 | 121.00873 | 82 ft | 2 kts | 335° |
| 2026-04-24 06:08 | 14.52170 | 121.00877 | 82 ft | 3 kts | 40° |
| 2026-04-24 06:09 | 14.52189 | 121.00897 | 82 ft | 4 kts | 46° |
| 2026-04-24 06:09 | 14.52211 | 121.00919 | 82 ft | 4 kts | 44° |
| 2026-04-24 06:09 | 14.52233 | 121.00942 | 82 ft | 2 kts | 45° |
| 2026-04-24 06:09 | 14.52240 | 121.00948 | 82 ft | 0 kts | 45° |